Lees Creek, Ohio
Current Conditions -  °F | °C
As of 12:54 PM on Tuesday 21 Oct 2014 (Local Time) from KILN Reporting Station
Light Rain Light Rain  
Wind Chill: 50°   Ceiling: 3400
Heat Index: 50°   Visibility: 10mi
Dew Point: 41°   Wind: 13mph
Humidity: 71%   Direction: 330°NNW
Pressure: 30.03"   Gusts: NA
Location:  39.42°N, 83.65°W
Report Text: KILN 211654Z AUTO 33011KT 10SM -RA FEW021 BKN034 OVC048 10/05 A3003 RMK AO2 RAB49 SLP176 P0000 T01000050
Loading
Personal Weather Stations






























Interactive Weather Map
Tropical Storm Tracking
New forecast layout! Learn more

10-Day Weather Forecast

Advertisements
Track Severe Weather on mobile